sensor_id;sensor_type;location;lat;lon;timestamp;P1;durP1;ratioP1;P2;durP2;ratioP2
16147;SDS011;8179;59.364;18.018;2023-09-12T00:00:37;1999.90;;;999.90;;
16147;SDS011;8179;59.364;18.018;2023-09-12T00:03:03;1999.90;;;999.90;;
16147;SDS011;8179;59.364;18.018;2023-09-12T00:05:31;1999.90;;;999.90;;
16147;SDS011;8179;59.364;18.018;2023-09-12T00:07:58;1999.90;;;999.90;;
16147;SDS011;8179;59.364;18.018;2023-09-12T00:10:24;1999.90;;;999.90;;
16147;SDS011;8179;59.364;18.018;2023-09-12T00:12:51;1999.90;;;999.90;;
16147;SDS011;8179;59.364;18.018;2023-09-12T00:15:17;1999.90;;;999.90;;
16147;SDS011;8179;59.364;18.018;2023-09-12T00:17:44;1999.90;;;999.90;;
16147;SDS011;8179;59.364;18.018;2023-09-12T00:20:11;1999.90;;;999.90;;
16147;SDS011;8179;59.364;18.018;2023-09-12T00:22:39;1999.90;;;999.90;;
16147;SDS011;8179;59.364;18.018;2023-09-12T00:25:06;1999.90;;;999.90;;
16147;SDS011;8179;59.364;18.018;2023-09-12T00:27:32;1999.90;;;999.90;;
16147;SDS011;8179;59.364;18.018;2023-09-12T00:29:59;1999.90;;;999.90;;
16147;SDS011;8179;59.364;18.018;2023-09-12T00:32:25;1999.90;;;999.90;;
16147;SDS011;8179;59.364;18.018;2023-09-12T00:34:52;1999.90;;;999.90;;
16147;SDS011;8179;59.364;18.018;2023-09-12T00:37:18;1999.90;;;999.90;;
16147;SDS011;8179;59.364;18.018;2023-09-12T00:39:46;1999.90;;;999.90;;
16147;SDS011;8179;59.364;18.018;2023-09-12T00:42:12;1999.90;;;999.90;;
16147;SDS011;8179;59.364;18.018;2023-09-12T00:44:39;1999.90;;;999.90;;
16147;SDS011;8179;59.364;18.018;2023-09-12T00:47:05;1999.90;;;999.90;;
16147;SDS011;8179;59.364;18.018;2023-09-12T00:49:32;1999.90;;;999.90;;
16147;SDS011;8179;59.364;18.018;2023-09-12T00:51:59;1999.90;;;999.90;;
16147;SDS011;8179;59.364;18.018;2023-09-12T00:54:27;1999.90;;;999.90;;
16147;SDS011;8179;59.364;18.018;2023-09-12T00:56:55;1999.90;;;999.90;;
16147;SDS011;8179;59.364;18.018;2023-09-12T00:59:21;1999.90;;;999.90;;
16147;SDS011;8179;59.364;18.018;2023-09-12T01:01:48;1999.90;;;999.90;;
16147;SDS011;8179;59.364;18.018;2023-09-12T01:04:14;1999.90;;;999.90;;
16147;SDS011;8179;59.364;18.018;2023-09-12T01:06:41;1999.90;;;999.90;;
16147;SDS011;8179;59.364;18.018;2023-09-12T01:09:08;1999.90;;;999.90;;
16147;SDS011;8179;59.364;18.018;2023-09-12T01:11:34;1999.90;;;999.90;;
16147;SDS011;8179;59.364;18.018;2023-09-12T01:14:02;1999.90;;;999.90;;
16147;SDS011;8179;59.364;18.018;2023-09-12T01:16:29;1999.90;;;999.90;;
16147;SDS011;8179;59.364;18.018;2023-09-12T01:18:55;1999.90;;;999.90;;
16147;SDS011;8179;59.364;18.018;2023-09-12T01:21:28;1999.90;;;999.90;;
16147;SDS011;8179;59.364;18.018;2023-09-12T01:24:04;1999.90;;;999.90;;
16147;SDS011;8179;59.364;18.018;2023-09-12T01:26:36;1999.90;;;999.90;;
16147;SDS011;8179;59.364;18.018;2023-09-12T01:29:08;1999.90;;;999.90;;
16147;SDS011;8179;59.364;18.018;2023-09-12T01:31:36;1999.90;;;999.90;;
16147;SDS011;8179;59.364;18.018;2023-09-12T01:34:08;1999.90;;;999.90;;
16147;SDS011;8179;59.364;18.018;2023-09-12T01:36:35;1999.90;;;999.90;;
16147;SDS011;8179;59.364;18.018;2023-09-12T01:39:01;1999.90;;;999.90;;
16147;SDS011;8179;59.364;18.018;2023-09-12T01:41:28;1999.90;;;999.90;;
16147;SDS011;8179;59.364;18.018;2023-09-12T01:43:57;1999.90;;;999.90;;
16147;SDS011;8179;59.364;18.018;2023-09-12T01:46:26;1999.90;;;999.90;;
16147;SDS011;8179;59.364;18.018;2023-09-12T01:48:53;1999.90;;;999.90;;
16147;SDS011;8179;59.364;18.018;2023-09-12T01:51:20;1999.90;;;999.90;;
16147;SDS011;8179;59.364;18.018;2023-09-12T01:53:47;1999.90;;;999.90;;
16147;SDS011;8179;59.364;18.018;2023-09-12T01:56:15;1999.90;;;999.90;;
16147;SDS011;8179;59.364;18.018;2023-09-12T01:58:42;1999.90;;;999.90;;
16147;SDS011;8179;59.364;18.018;2023-09-12T02:01:09;1999.90;;;999.90;;
16147;SDS011;8179;59.364;18.018;2023-09-12T02:03:37;1999.90;;;999.90;;
16147;SDS011;8179;59.364;18.018;2023-09-12T02:06:03;1999.90;;;999.90;;
16147;SDS011;8179;59.364;18.018;2023-09-12T02:08:30;1999.90;;;999.90;;
16147;SDS011;8179;59.364;18.018;2023-09-12T02:10:56;1999.90;;;999.90;;
16147;SDS011;8179;59.364;18.018;2023-09-12T02:13:23;1999.90;;;999.90;;
16147;SDS011;8179;59.364;18.018;2023-09-12T02:15:49;1999.90;;;999.90;;
16147;SDS011;8179;59.364;18.018;2023-09-12T02:18:16;1999.90;;;999.90;;
16147;SDS011;8179;59.364;18.018;2023-09-12T02:20:44;1999.90;;;999.90;;
16147;SDS011;8179;59.364;18.018;2023-09-12T02:23:11;1999.90;;;999.90;;
16147;SDS011;8179;59.364;18.018;2023-09-12T02:25:37;1999.90;;;999.90;;
16147;SDS011;8179;59.364;18.018;2023-09-12T02:28:04;1999.90;;;999.90;;
16147;SDS011;8179;59.364;18.018;2023-09-12T02:30:30;1999.90;;;999.90;;
16147;SDS011;8179;59.364;18.018;2023-09-12T02:32:57;1999.90;;;999.90;;
16147;SDS011;8179;59.364;18.018;2023-09-12T02:35:23;1999.90;;;999.90;;
16147;SDS011;8179;59.364;18.018;2023-09-12T02:37:51;1999.90;;;999.90;;
16147;SDS011;8179;59.364;18.018;2023-09-12T02:40:18;1999.90;;;999.90;;
16147;SDS011;8179;59.364;18.018;2023-09-12T02:42:44;1999.90;;;999.90;;
16147;SDS011;8179;59.364;18.018;2023-09-12T02:45:11;1999.90;;;999.90;;
16147;SDS011;8179;59.364;18.018;2023-09-12T02:47:37;1999.90;;;999.90;;
16147;SDS011;8179;59.364;18.018;2023-09-12T02:50:04;1999.90;;;999.90;;
16147;SDS011;8179;59.364;18.018;2023-09-12T02:52:31;1999.90;;;999.90;;
16147;SDS011;8179;59.364;18.018;2023-09-12T02:54:59;1999.90;;;999.90;;
16147;SDS011;8179;59.364;18.018;2023-09-12T02:57:25;1999.90;;;999.90;;
16147;SDS011;8179;59.364;18.018;2023-09-12T02:59:52;1999.90;;;999.90;;
16147;SDS011;8179;59.364;18.018;2023-09-12T03:02:18;1999.90;;;999.90;;
16147;SDS011;8179;59.364;18.018;2023-09-12T03:04:45;1999.90;;;999.90;;
16147;SDS011;8179;59.364;18.018;2023-09-12T03:07:12;1999.90;;;999.90;;
16147;SDS011;8179;59.364;18.018;2023-09-12T03:09:38;1999.90;;;999.90;;
16147;SDS011;8179;59.364;18.018;2023-09-12T03:12:06;1999.90;;;999.90;;
16147;SDS011;8179;59.364;18.018;2023-09-12T03:14:33;1999.90;;;999.90;;
16147;SDS011;8179;59.364;18.018;2023-09-12T03:17:00;1999.90;;;999.90;;
16147;SDS011;8179;59.364;18.018;2023-09-12T03:19:27;1999.90;;;999.90;;
16147;SDS011;8179;59.364;18.018;2023-09-12T03:21:55;1999.90;;;999.90;;
16147;SDS011;8179;59.364;18.018;2023-09-12T03:24:22;1999.90;;;999.90;;
16147;SDS011;8179;59.364;18.018;2023-09-12T03:26:50;1999.90;;;999.90;;
16147;SDS011;8179;59.364;18.018;2023-09-12T03:29:18;1999.90;;;999.90;;
16147;SDS011;8179;59.364;18.018;2023-09-12T03:31:45;1999.90;;;999.90;;
16147;SDS011;8179;59.364;18.018;2023-09-12T03:34:12;1999.90;;;999.90;;
16147;SDS011;8179;59.364;18.018;2023-09-12T03:36:38;1999.90;;;999.90;;
16147;SDS011;8179;59.364;18.018;2023-09-12T03:39:05;1999.90;;;999.90;;
16147;SDS011;8179;59.364;18.018;2023-09-12T03:41:33;1999.90;;;999.90;;
16147;SDS011;8179;59.364;18.018;2023-09-12T03:44:00;1999.90;;;999.90;;
16147;SDS011;8179;59.364;18.018;2023-09-12T03:46:28;1999.90;;;999.90;;
16147;SDS011;8179;59.364;18.018;2023-09-12T03:48:55;1999.90;;;999.90;;
16147;SDS011;8179;59.364;18.018;2023-09-12T03:51:21;1999.90;;;999.90;;
16147;SDS011;8179;59.364;18.018;2023-09-12T03:53:48;1999.90;;;999.90;;
16147;SDS011;8179;59.364;18.018;2023-09-12T03:56:15;1999.90;;;999.90;;
16147;SDS011;8179;59.364;18.018;2023-09-12T03:58:41;1999.90;;;999.90;;
16147;SDS011;8179;59.364;18.018;2023-09-12T04:01:08;1999.90;;;999.90;;
16147;SDS011;8179;59.364;18.018;2023-09-12T04:03:36;1999.90;;;999.90;;
16147;SDS011;8179;59.364;18.018;2023-09-12T04:06:02;1999.90;;;999.90;;
16147;SDS011;8179;59.364;18.018;2023-09-12T04:08:29;1999.90;;;999.90;;
16147;SDS011;8179;59.364;18.018;2023-09-12T04:10:57;1999.90;;;999.90;;
16147;SDS011;8179;59.364;18.018;2023-09-12T04:13:23;1999.90;;;999.90;;
16147;SDS011;8179;59.364;18.018;2023-09-12T04:15:50;1999.90;;;999.90;;
16147;SDS011;8179;59.364;18.018;2023-09-12T04:18:16;1999.90;;;999.90;;
16147;SDS011;8179;59.364;18.018;2023-09-12T04:20:44;1999.90;;;999.90;;
16147;SDS011;8179;59.364;18.018;2023-09-12T04:23:11;1999.90;;;999.90;;
16147;SDS011;8179;59.364;18.018;2023-09-12T04:25:37;1999.90;;;999.90;;
16147;SDS011;8179;59.364;18.018;2023-09-12T04:28:04;1999.90;;;999.90;;
16147;SDS011;8179;59.364;18.018;2023-09-12T04:30:30;1999.90;;;999.90;;
16147;SDS011;8179;59.364;18.018;2023-09-12T04:32:57;1999.90;;;999.90;;
16147;SDS011;8179;59.364;18.018;2023-09-12T04:35:23;1999.90;;;999.90;;
16147;SDS011;8179;59.364;18.018;2023-09-12T04:37:51;1999.90;;;999.90;;
16147;SDS011;8179;59.364;18.018;2023-09-12T04:40:18;1999.90;;;999.90;;
16147;SDS011;8179;59.364;18.018;2023-09-12T04:42:44;1999.90;;;999.90;;
16147;SDS011;8179;59.364;18.018;2023-09-12T04:45:11;1999.90;;;999.90;;
16147;SDS011;8179;59.364;18.018;2023-09-12T04:47:37;1999.90;;;999.90;;
16147;SDS011;8179;59.364;18.018;2023-09-12T04:50:07;1999.90;;;999.90;;
16147;SDS011;8179;59.364;18.018;2023-09-12T04:52:34;1999.90;;;999.90;;
16147;SDS011;8179;59.364;18.018;2023-09-12T04:55:02;1999.90;;;999.90;;
16147;SDS011;8179;59.364;18.018;2023-09-12T04:57:30;1999.90;;;999.90;;
16147;SDS011;8179;59.364;18.018;2023-09-12T04:59:56;1999.90;;;999.90;;
16147;SDS011;8179;59.364;18.018;2023-09-12T05:02:23;1999.90;;;999.90;;
16147;SDS011;8179;59.364;18.018;2023-09-12T05:04:50;1999.90;;;999.90;;
16147;SDS011;8179;59.364;18.018;2023-09-12T05:07:16;1999.90;;;999.90;;
16147;SDS011;8179;59.364;18.018;2023-09-12T05:09:43;1999.90;;;999.90;;
16147;SDS011;8179;59.364;18.018;2023-09-12T05:12:16;1999.90;;;999.90;;
16147;SDS011;8179;59.364;18.018;2023-09-12T05:14:42;1999.90;;;999.90;;
16147;SDS011;8179;59.364;18.018;2023-09-12T05:17:09;1999.90;;;999.90;;
16147;SDS011;8179;59.364;18.018;2023-09-12T05:19:35;1999.90;;;999.90;;
16147;SDS011;8179;59.364;18.018;2023-09-12T05:22:02;1999.90;;;999.90;;
16147;SDS011;8179;59.364;18.018;2023-09-12T05:24:28;1999.90;;;999.90;;
16147;SDS011;8179;59.364;18.018;2023-09-12T05:26:54;1999.90;;;999.90;;
16147;SDS011;8179;59.364;18.018;2023-09-12T05:29:22;585.05;;;555.03;;
16147;SDS011;8179;59.364;18.018;2023-09-12T05:31:49;1999.90;;;999.90;;
16147;SDS011;8179;59.364;18.018;2023-09-12T05:34:17;1999.90;;;999.90;;
16147;SDS011;8179;59.364;18.018;2023-09-12T05:36:43;1999.90;;;999.90;;
16147;SDS011;8179;59.364;18.018;2023-09-12T05:39:10;1999.90;;;999.90;;
16147;SDS011;8179;59.364;18.018;2023-09-12T05:41:38;1999.90;;;999.90;;
16147;SDS011;8179;59.364;18.018;2023-09-12T05:44:05;999.40;;;721.60;;
16147;SDS011;8179;59.364;18.018;2023-09-12T05:46:34;1063.05;;;779.17;;
16147;SDS011;8179;59.364;18.018;2023-09-12T05:49:01;1999.90;;;999.90;;
16147;SDS011;8179;59.364;18.018;2023-09-12T05:51:28;1999.90;;;999.90;;
16147;SDS011;8179;59.364;18.018;2023-09-12T05:53:55;1999.90;;;999.90;;
16147;SDS011;8179;59.364;18.018;2023-09-12T05:56:21;1378.82;;;856.35;;
16147;SDS011;8179;59.364;18.018;2023-09-12T05:58:48;704.55;;;665.10;;
16147;SDS011;8179;59.364;18.018;2023-09-12T06:01:15;704.00;;;663.00;;
16147;SDS011;8179;59.364;18.018;2023-09-12T06:03:43;688.47;;;649.15;;
16147;SDS011;8179;59.364;18.018;2023-09-12T06:06:10;648.55;;;613.20;;
16147;SDS011;8179;59.364;18.018;2023-09-12T06:08:37;582.97;;;551.95;;
16147;SDS011;8179;59.364;18.018;2023-09-12T06:11:03;758.65;;;709.40;;
16147;SDS011;8179;59.364;18.018;2023-09-12T06:13:30;715.33;;;673.70;;
16147;SDS011;8179;59.364;18.018;2023-09-12T06:15:57;644.47;;;608.25;;
16147;SDS011;8179;59.364;18.018;2023-09-12T06:18:24;554.90;;;521.90;;
16147;SDS011;8179;59.364;18.018;2023-09-12T06:20:54;576.67;;;544.58;;
16147;SDS011;8179;59.364;18.018;2023-09-12T06:23:21;636.17;;;600.38;;
16147;SDS011;8179;59.364;18.018;2023-09-12T06:25:48;561.80;;;531.53;;
16147;SDS011;8179;59.364;18.018;2023-09-12T06:28:24;593.40;;;561.13;;
16147;SDS011;8179;59.364;18.018;2023-09-12T06:30:51;586.22;;;553.88;;
16147;SDS011;8179;59.364;18.018;2023-09-12T06:33:17;580.63;;;549.05;;
16147;SDS011;8179;59.364;18.018;2023-09-12T06:35:44;659.63;;;620.03;;
16147;SDS011;8179;59.364;18.018;2023-09-12T06:38:15;600.58;;;564.42;;
16147;SDS011;8179;59.364;18.018;2023-09-12T06:40:42;585.97;;;553.20;;
16147;SDS011;8179;59.364;18.018;2023-09-12T06:43:08;563.30;;;532.13;;
16147;SDS011;8179;59.364;18.018;2023-09-12T06:45:35;718.90;;;674.05;;
16147;SDS011;8179;59.364;18.018;2023-09-12T06:48:03;598.50;;;565.72;;
16147;SDS011;8179;59.364;18.018;2023-09-12T06:50:29;600.83;;;567.22;;
16147;SDS011;8179;59.364;18.018;2023-09-12T06:52:56;609.40;;;574.42;;
16147;SDS011;8179;59.364;18.018;2023-09-12T06:55:24;609.22;;;572.88;;
16147;SDS011;8179;59.364;18.018;2023-09-12T06:57:50;610.63;;;576.20;;
16147;SDS011;8179;59.364;18.018;2023-09-12T07:00:17;636.83;;;598.38;;
16147;SDS011;8179;59.364;18.018;2023-09-12T07:02:43;577.08;;;542.45;;
16147;SDS011;8179;59.364;18.018;2023-09-12T07:05:10;1706.05;;;942.10;;
16147;SDS011;8179;59.364;18.018;2023-09-12T07:07:36;687.25;;;646.05;;
16147;SDS011;8179;59.364;18.018;2023-09-12T07:10:03;623.33;;;586.58;;
16147;SDS011;8179;59.364;18.018;2023-09-12T07:12:31;594.75;;;561.15;;
16147;SDS011;8179;59.364;18.018;2023-09-12T07:14:58;611.75;;;576.80;;
16147;SDS011;8179;59.364;18.018;2023-09-12T07:17:25;584.60;;;551.80;;
16147;SDS011;8179;59.364;18.018;2023-09-12T07:19:53;650.92;;;608.75;;
16147;SDS011;8179;59.364;18.018;2023-09-12T07:22:20;657.28;;;618.17;;
16147;SDS011;8179;59.364;18.018;2023-09-12T07:24:46;621.65;;;585.97;;
16147;SDS011;8179;59.364;18.018;2023-09-12T07:27:13;632.65;;;595.50;;
16147;SDS011;8179;59.364;18.018;2023-09-12T07:29:41;1686.55;;;924.35;;
16147;SDS011;8179;59.364;18.018;2023-09-12T07:32:07;653.90;;;615.10;;
16147;SDS011;8179;59.364;18.018;2023-09-12T07:34:35;651.15;;;610.63;;
16147;SDS011;8179;59.364;18.018;2023-09-12T07:37:03;1711.15;;;947.38;;
16147;SDS011;8179;59.364;18.018;2023-09-12T07:39:29;1999.90;;;999.90;;
16147;SDS011;8179;59.364;18.018;2023-09-12T07:41:56;1053.50;;;769.78;;
16147;SDS011;8179;59.364;18.018;2023-09-12T07:44:22;795.25;;;741.85;;
16147;SDS011;8179;59.364;18.018;2023-09-12T07:46:50;786.53;;;736.80;;
16147;SDS011;8179;59.364;18.018;2023-09-12T07:49:17;1999.90;;;999.90;;
16147;SDS011;8179;59.364;18.018;2023-09-12T07:51:44;1686.53;;;925.30;;
16147;SDS011;8179;59.364;18.018;2023-09-12T07:54:10;1999.90;;;999.90;;
16147;SDS011;8179;59.364;18.018;2023-09-12T07:56:37;1999.90;;;999.90;;
16147;SDS011;8179;59.364;18.018;2023-09-12T07:59:03;1999.90;;;999.90;;
16147;SDS011;8179;59.364;18.018;2023-09-12T08:01:30;1999.90;;;999.90;;
16147;SDS011;8179;59.364;18.018;2023-09-12T08:03:57;1999.90;;;999.90;;
16147;SDS011;8179;59.364;18.018;2023-09-12T08:06:24;1999.90;;;999.90;;
16147;SDS011;8179;59.364;18.018;2023-09-12T08:08:50;1999.90;;;999.90;;
16147;SDS011;8179;59.364;18.018;2023-09-12T08:11:17;1999.90;;;999.90;;
16147;SDS011;8179;59.364;18.018;2023-09-12T08:13:47;1999.90;;;999.90;;
16147;SDS011;8179;59.364;18.018;2023-09-12T08:16:14;1999.90;;;999.90;;
16147;SDS011;8179;59.364;18.018;2023-09-12T08:18:41;1999.90;;;999.90;;
16147;SDS011;8179;59.364;18.018;2023-09-12T08:21:09;1999.90;;;999.90;;
16147;SDS011;8179;59.364;18.018;2023-09-12T08:23:36;1999.90;;;999.90;;
16147;SDS011;8179;59.364;18.018;2023-09-12T08:26:02;1999.90;;;999.90;;
16147;SDS011;8179;59.364;18.018;2023-09-12T08:28:29;1999.90;;;999.90;;
16147;SDS011;8179;59.364;18.018;2023-09-12T08:30:55;1999.90;;;999.90;;
16147;SDS011;8179;59.364;18.018;2023-09-12T08:33:22;1999.90;;;999.90;;
16147;SDS011;8179;59.364;18.018;2023-09-12T08:35:49;1999.90;;;999.90;;
16147;SDS011;8179;59.364;18.018;2023-09-12T08:38:17;1999.90;;;999.90;;
16147;SDS011;8179;59.364;18.018;2023-09-12T08:40:47;1999.90;;;999.90;;
16147;SDS011;8179;59.364;18.018;2023-09-12T08:43:14;1999.90;;;999.90;;
16147;SDS011;8179;59.364;18.018;2023-09-12T08:45:40;1999.90;;;999.90;;
16147;SDS011;8179;59.364;18.018;2023-09-12T08:48:08;1999.90;;;999.90;;
16147;SDS011;8179;59.364;18.018;2023-09-12T08:50:35;1999.90;;;999.90;;
16147;SDS011;8179;59.364;18.018;2023-09-12T08:53:02;1999.90;;;999.90;;
16147;SDS011;8179;59.364;18.018;2023-09-12T08:55:30;1999.90;;;999.90;;
16147;SDS011;8179;59.364;18.018;2023-09-12T08:57:58;1999.90;;;999.90;;
16147;SDS011;8179;59.364;18.018;2023-09-12T09:00:25;1999.90;;;999.90;;
16147;SDS011;8179;59.364;18.018;2023-09-12T09:02:53;1999.90;;;999.90;;
16147;SDS011;8179;59.364;18.018;2023-09-12T09:05:20;1999.90;;;999.90;;
16147;SDS011;8179;59.364;18.018;2023-09-12T09:07:47;1999.90;;;999.90;;
16147;SDS011;8179;59.364;18.018;2023-09-12T09:10:15;1999.90;;;999.90;;
16147;SDS011;8179;59.364;18.018;2023-09-12T09:12:44;1999.90;;;999.90;;
16147;SDS011;8179;59.364;18.018;2023-09-12T09:15:20;1999.90;;;999.90;;
16147;SDS011;8179;59.364;18.018;2023-09-12T09:17:47;1999.90;;;999.90;;
16147;SDS011;8179;59.364;18.018;2023-09-12T09:20:21;1999.90;;;999.90;;
16147;SDS011;8179;59.364;18.018;2023-09-12T09:22:54;1999.90;;;999.90;;
16147;SDS011;8179;59.364;18.018;2023-09-12T09:25:21;1999.90;;;999.90;;
16147;SDS011;8179;59.364;18.018;2023-09-12T09:27:49;1999.90;;;999.90;;
16147;SDS011;8179;59.364;18.018;2023-09-12T09:30:16;1999.90;;;999.90;;
16147;SDS011;8179;59.364;18.018;2023-09-12T09:32:44;1999.90;;;999.90;;
16147;SDS011;8179;59.364;18.018;2023-09-12T09:35:12;1999.90;;;999.90;;
16147;SDS011;8179;59.364;18.018;2023-09-12T09:37:38;1999.90;;;999.90;;
16147;SDS011;8179;59.364;18.018;2023-09-12T09:40:05;1999.90;;;999.90;;
16147;SDS011;8179;59.364;18.018;2023-09-12T09:42:33;1999.90;;;999.90;;
16147;SDS011;8179;59.364;18.018;2023-09-12T09:45:01;1999.90;;;999.90;;
16147;SDS011;8179;59.364;18.018;2023-09-12T09:47:27;1999.90;;;999.90;;
16147;SDS011;8179;59.364;18.018;2023-09-12T09:49:54;1999.90;;;999.90;;
16147;SDS011;8179;59.364;18.018;2023-09-12T09:52:25;1999.90;;;999.90;;
16147;SDS011;8179;59.364;18.018;2023-09-12T09:54:51;1999.90;;;999.90;;
16147;SDS011;8179;59.364;18.018;2023-09-12T09:57:18;1999.90;;;999.90;;
16147;SDS011;8179;59.364;18.018;2023-09-12T09:59:48;1999.90;;;999.90;;
16147;SDS011;8179;59.364;18.018;2023-09-12T10:02:17;1999.90;;;999.90;;
16147;SDS011;8179;59.364;18.018;2023-09-12T10:04:47;1999.90;;;999.90;;
16147;SDS011;8179;59.364;18.018;2023-09-12T10:07:14;1999.90;;;999.90;;
16147;SDS011;8179;59.364;18.018;2023-09-12T10:09:41;1999.90;;;999.90;;
16147;SDS011;8179;59.364;18.018;2023-09-12T10:12:09;1999.90;;;999.90;;
16147;SDS011;8179;59.364;18.018;2023-09-12T10:14:36;1999.90;;;999.90;;
16147;SDS011;8179;59.364;18.018;2023-09-12T10:17:04;1999.90;;;999.90;;
16147;SDS011;8179;59.364;18.018;2023-09-12T10:19:34;1999.90;;;999.90;;
16147;SDS011;8179;59.364;18.018;2023-09-12T10:22:03;1999.90;;;999.90;;
16147;SDS011;8179;59.364;18.018;2023-09-12T10:24:32;1999.90;;;999.90;;
16147;SDS011;8179;59.364;18.018;2023-09-12T10:27:01;1999.90;;;999.90;;
16147;SDS011;8179;59.364;18.018;2023-09-12T10:29:29;1999.90;;;999.90;;
16147;SDS011;8179;59.364;18.018;2023-09-12T10:31:55;1999.90;;;999.90;;
16147;SDS011;8179;59.364;18.018;2023-09-12T10:34:22;1999.90;;;999.90;;
16147;SDS011;8179;59.364;18.018;2023-09-12T10:36:52;1999.90;;;999.90;;
16147;SDS011;8179;59.364;18.018;2023-09-12T10:39:19;1999.90;;;999.90;;
16147;SDS011;8179;59.364;18.018;2023-09-12T10:41:46;1999.90;;;999.90;;
16147;SDS011;8179;59.364;18.018;2023-09-12T10:44:14;1999.90;;;999.90;;
16147;SDS011;8179;59.364;18.018;2023-09-12T10:46:41;1999.90;;;999.90;;
16147;SDS011;8179;59.364;18.018;2023-09-12T10:49:08;1999.90;;;999.90;;
16147;SDS011;8179;59.364;18.018;2023-09-12T10:51:37;1999.90;;;999.90;;
16147;SDS011;8179;59.364;18.018;2023-09-12T10:54:06;1999.90;;;999.90;;
16147;SDS011;8179;59.364;18.018;2023-09-12T10:56:33;1999.90;;;999.90;;
16147;SDS011;8179;59.364;18.018;2023-09-12T10:59:13;1999.90;;;999.90;;
16147;SDS011;8179;59.364;18.018;2023-09-12T11:01:40;1999.90;;;999.90;;
16147;SDS011;8179;59.364;18.018;2023-09-12T11:06:53;1999.90;;;999.90;;
16147;SDS011;8179;59.364;18.018;2023-09-12T11:09:22;1999.90;;;999.90;;
16147;SDS011;8179;59.364;18.018;2023-09-12T11:11:49;1999.90;;;999.90;;
16147;SDS011;8179;59.364;18.018;2023-09-12T11:14:20;1999.90;;;999.90;;
16147;SDS011;8179;59.364;18.018;2023-09-12T11:19:28;1999.90;;;999.90;;
16147;SDS011;8179;59.364;18.018;2023-09-12T11:21:54;1999.90;;;999.90;;
16147;SDS011;8179;59.364;18.018;2023-09-12T11:24:23;1999.90;;;999.90;;
16147;SDS011;8179;59.364;18.018;2023-09-12T11:26:52;1999.90;;;999.90;;
16147;SDS011;8179;59.364;18.018;2023-09-12T11:29:20;1999.90;;;999.90;;
16147;SDS011;8179;59.364;18.018;2023-09-12T11:31:51;1999.90;;;999.90;;
16147;SDS011;8179;59.364;18.018;2023-09-12T11:34:18;1999.90;;;999.90;;
16147;SDS011;8179;59.364;18.018;2023-09-12T11:36:45;1999.90;;;999.90;;
16147;SDS011;8179;59.364;18.018;2023-09-12T11:39:27;1999.90;;;999.90;;
16147;SDS011;8179;59.364;18.018;2023-09-12T11:41:55;1999.90;;;999.90;;
16147;SDS011;8179;59.364;18.018;2023-09-12T11:44:21;1999.90;;;999.90;;
16147;SDS011;8179;59.364;18.018;2023-09-12T11:46:48;1999.90;;;999.90;;
16147;SDS011;8179;59.364;18.018;2023-09-12T11:49:16;1999.90;;;999.90;;
16147;SDS011;8179;59.364;18.018;2023-09-12T11:51:46;1999.90;;;999.90;;
16147;SDS011;8179;59.364;18.018;2023-09-12T11:54:14;1999.90;;;999.90;;
16147;SDS011;8179;59.364;18.018;2023-09-12T11:56:42;1999.90;;;999.90;;
16147;SDS011;8179;59.364;18.018;2023-09-12T11:59:08;1999.90;;;999.90;;
16147;SDS011;8179;59.364;18.018;2023-09-12T12:01:35;1999.90;;;999.90;;
16147;SDS011;8179;59.364;18.018;2023-09-12T12:04:01;1999.90;;;999.90;;
16147;SDS011;8179;59.364;18.018;2023-09-12T12:06:28;1999.90;;;999.90;;
16147;SDS011;8179;59.364;18.018;2023-09-12T12:08:56;1999.90;;;999.90;;
16147;SDS011;8179;59.364;18.018;2023-09-12T12:11:22;1999.90;;;999.90;;
16147;SDS011;8179;59.364;18.018;2023-09-12T12:13:54;1999.90;;;999.90;;
16147;SDS011;8179;59.364;18.018;2023-09-12T12:16:21;1999.90;;;999.90;;
16147;SDS011;8179;59.364;18.018;2023-09-12T12:18:47;1999.90;;;999.90;;
16147;SDS011;8179;59.364;18.018;2023-09-12T12:21:19;1999.90;;;999.90;;
16147;SDS011;8179;59.364;18.018;2023-09-12T12:23:46;1999.90;;;999.90;;
16147;SDS011;8179;59.364;18.018;2023-09-12T12:26:12;1999.90;;;999.90;;
16147;SDS011;8179;59.364;18.018;2023-09-12T12:28:39;1999.90;;;999.90;;
16147;SDS011;8179;59.364;18.018;2023-09-12T12:31:08;1999.90;;;999.90;;
16147;SDS011;8179;59.364;18.018;2023-09-12T12:33:34;1999.90;;;999.90;;
16147;SDS011;8179;59.364;18.018;2023-09-12T12:36:01;1999.90;;;999.90;;
16147;SDS011;8179;59.364;18.018;2023-09-12T12:38:28;1999.90;;;999.90;;
16147;SDS011;8179;59.364;18.018;2023-09-12T12:40:57;1999.90;;;999.90;;
16147;SDS011;8179;59.364;18.018;2023-09-12T12:43:24;1999.90;;;999.90;;
16147;SDS011;8179;59.364;18.018;2023-09-12T12:45:52;1999.90;;;999.90;;
16147;SDS011;8179;59.364;18.018;2023-09-12T12:48:29;1999.90;;;999.90;;
16147;SDS011;8179;59.364;18.018;2023-09-12T12:50:56;1999.90;;;999.90;;
16147;SDS011;8179;59.364;18.018;2023-09-12T12:53:36;1999.90;;;999.90;;
16147;SDS011;8179;59.364;18.018;2023-09-12T12:56:03;1999.90;;;999.90;;
16147;SDS011;8179;59.364;18.018;2023-09-12T12:58:29;1999.90;;;999.90;;
16147;SDS011;8179;59.364;18.018;2023-09-12T13:00:56;1999.90;;;999.90;;
16147;SDS011;8179;59.364;18.018;2023-09-12T13:03:22;1999.90;;;999.90;;
16147;SDS011;8179;59.364;18.018;2023-09-12T13:05:50;1999.90;;;999.90;;
16147;SDS011;8179;59.364;18.018;2023-09-12T13:08:17;1999.90;;;999.90;;
16147;SDS011;8179;59.364;18.018;2023-09-12T13:10:43;1999.90;;;999.90;;
16147;SDS011;8179;59.364;18.018;2023-09-12T13:13:10;1999.90;;;999.90;;
16147;SDS011;8179;59.364;18.018;2023-09-12T13:15:37;1999.90;;;999.90;;
16147;SDS011;8179;59.364;18.018;2023-09-12T13:18:03;1999.90;;;999.90;;
16147;SDS011;8179;59.364;18.018;2023-09-12T13:20:30;1999.90;;;999.90;;
16147;SDS011;8179;59.364;18.018;2023-09-12T13:22:58;1999.90;;;999.90;;
16147;SDS011;8179;59.364;18.018;2023-09-12T13:25:25;1999.90;;;999.90;;
16147;SDS011;8179;59.364;18.018;2023-09-12T13:27:51;1999.90;;;999.90;;
16147;SDS011;8179;59.364;18.018;2023-09-12T13:30:18;1999.90;;;999.90;;
16147;SDS011;8179;59.364;18.018;2023-09-12T13:32:44;1999.90;;;999.90;;
16147;SDS011;8179;59.364;18.018;2023-09-12T13:35:11;1999.90;;;999.90;;
16147;SDS011;8179;59.364;18.018;2023-09-12T13:37:38;1999.90;;;999.90;;
16147;SDS011;8179;59.364;18.018;2023-09-12T13:40:06;1999.90;;;999.90;;
16147;SDS011;8179;59.364;18.018;2023-09-12T13:42:34;1999.90;;;999.90;;
16147;SDS011;8179;59.364;18.018;2023-09-12T13:45:00;1999.90;;;999.90;;
16147;SDS011;8179;59.364;18.018;2023-09-12T13:47:27;1999.90;;;999.90;;
16147;SDS011;8179;59.364;18.018;2023-09-12T13:49:54;1999.90;;;999.90;;
16147;SDS011;8179;59.364;18.018;2023-09-12T13:52:21;1999.90;;;999.90;;